Terminal Aerodrome Forecast
Issued by NWS

Home | Current Version | Previous Version | Graphics & Text | Print | Product List | Glossary On
Versions: 1 2 3 4 5 6 7 8 9 10 11 12 13 14 15 16 17 18 19 20 21 22 23 24 25 26 27
000
FTUS43 KICT 170800 AAA
TAFCNU
TAF AMD
KCNU 170800Z 1708/1806 14005KT P6SM VCTS SCT025CB BKN040
      TEMPO 1709/1713 BKN020CB
     FM171500 19007KT P6SM VCTS BKN030CB
      TEMPO 1715/1718 OVC020CB
     FM172300 15006KT P6SM SCT035=

USA.gov is the U.S. government's official web portal to all federal, state and local government web resources and services.